FVBO weather

Bosbury Airport
Bosbury, Mashonaland West Province, Zimbabwe

Public forecast

Using degrees Celsius for public forecast. Weather courtesy of forecast.io.

Closest aviation weather report (METAR) to Bosbury Airport

Report is more than 6 hours old.

Closest report is Robert Gabriel Mugabe International Airport, 57.4 nm (106.3 km) ENE. Retrieved 2020/02/28 18:00 UTC (8 hours ago):

FVRG 281800Z 10006KT CAVOK 22/13 Q1021 NOSIG

Closest aviation forecast (TAF) to Bosbury Airport

Forecast is more than 12 hours old.

Closest forecast is Robert Gabriel Mugabe International Airport, 57.4 nm (106.3 km) ENE. Retrieved 2020/02/28 06:00 UTC (20 hours ago):

TAF FVRG 280400Z 2806/2912 04008KT CAVOK BECMG 2807/2809 9999 SCT040 BECMG 2811/2813 CAVOK